Time;durP1;ratioP1;P1;durP2;ratioP2;P2;SDS_P1;SDS_P2;PMS_P1;PMS_P2;Temp;Humidity;BMP_temperature;BMP_pressure;BME280_temperature;BME280_humidity;BME280_pressure;Samples;Min_cycle;Max_cycle;Signal;HPM_P1;HPM_P2
2023/10/13 00:01:21;;;;;;;;;;;;;;;20.72;62.50;100950.59;5038785;28;6654;-71
2023/10/13 00:03:48;;;;;;;;;;;;;;;20.75;62.50;100937.03;5038938;28;1626;-72
2023/10/13 00:06:15;;;;;;;;;;;;;;;20.74;62.23;100935.56;5042810;28;2118;-71
2023/10/13 00:08:41;;;;;;;;;;;;;;;20.72;62.58;100930.44;5041139;28;2157;-71
2023/10/13 00:11:11;;;;;;;;;;;;;;;20.77;62.52;100935.00;5037465;28;2154;-71
2023/10/13 00:13:42;;;;;;;;;;;;;;;20.74;62.39;100929.81;5041010;28;2117;-71
2023/10/13 00:16:10;;;;;;;;;;;;;;;20.71;62.45;100929.72;5043209;28;2016;-72
2023/10/13 00:18:43;;;;;;;;;;;;;;;20.70;62.33;100924.59;5039526;28;2265;-72
2023/10/13 00:21:13;;;;;;;;;;;;;;;20.69;62.52;100926.72;5040307;28;2312;-72
2023/10/13 00:23:48;;;;;;;;;;;;;;;20.70;62.22;100927.47;5039656;28;2054;-71
2023/10/13 00:26:18;;;;;;;;;;;;;;;20.70;62.52;100936.09;5035550;28;2235;-71
2023/10/13 00:28:58;;;;;;;;;;;;;;;20.69;62.34;100934.63;5021344;28;2195;-71
2023/10/13 00:31:36;;;;;;;;;;;;;;;20.70;62.57;100930.34;5036798;28;6548;-71
2023/10/13 00:34:15;;;;;;;;;;;;;;;20.69;62.61;100935.38;5039509;28;1816;-71
2023/10/13 00:36:48;;;;;;;;;;;;;;;20.70;62.53;100924.59;5036352;28;2402;-72
2023/10/13 00:39:18;;;;;;;;;;;;;;;20.68;62.35;100927.38;5017421;28;2384;-72
2023/10/13 00:41:52;;;;;;;;;;;;;;;20.68;62.55;100919.50;5035266;28;1932;-71
2023/10/13 00:44:26;;;;;;;;;;;;;;;20.71;62.45;100920.34;5021499;28;2166;-71
2023/10/13 00:46:56;;;;;;;;;;;;;;;20.67;62.51;100920.88;5020160;28;2174;-71
2023/10/13 00:49:22;;;;;;;;;;;;;;;20.66;62.41;100928.03;5023385;28;2176;-71
2023/10/13 00:51:49;;;;;;;;;;;;;;;20.67;62.36;100925.91;5037054;28;2161;-71
2023/10/13 00:54:18;;;;;;;;;;;;;;;20.66;62.39;100918.66;5024031;28;2193;-71
2023/10/13 00:56:53;;;;;;;;;;;;;;;20.66;62.63;100919.41;5020849;28;2137;-71
2023/10/13 00:59:23;;;;;;;;;;;;;;;20.68;62.45;100922.38;5021525;28;2166;-71
2023/10/13 01:01:55;;;;;;;;;;;;;;;20.70;62.34;100913.09;5039043;28;6109;-71
2023/10/13 01:04:27;;;;;;;;;;;;;;;20.68;62.39;100915.88;5039806;28;2156;-72
2023/10/13 01:06:53;;;;;;;;;;;;;;;20.68;62.58;100913.75;5039911;28;2129;-71
2023/10/13 01:09:24;;;;;;;;;;;;;;;20.67;62.48;100923.03;5039879;28;2118;-67
2023/10/13 01:11:55;;;;;;;;;;;;;;;20.65;62.48;100920.06;5035638;28;2094;-71
2023/10/13 01:14:23;;;;;;;;;;;;;;;20.64;62.54;100910.69;5034670;28;2134;-71
2023/10/13 01:16:52;;;;;;;;;;;;;;;20.65;62.42;100911.41;5037305;28;2209;-71
2023/10/13 01:19:21;;;;;;;;;;;;;;;20.65;62.39;100917.19;5040207;28;2180;-72
2023/10/13 01:21:48;;;;;;;;;;;;;;;20.65;62.57;100905.66;5038913;28;2168;-71
2023/10/13 01:24:15;;;;;;;;;;;;;;;20.65;62.38;100911.41;5039778;28;2344;-71
2023/10/13 01:26:42;;;;;;;;;;;;;;;20.64;62.45;100915.69;5018698;28;2071;-71
2023/10/13 01:29:14;;;;;;;;;;;;;;;20.67;62.44;100917.28;5034253;28;2126;-71
2023/10/13 01:31:47;;;;;;;;;;;;;;;20.66;62.32;100921.53;5031274;28;6672;-71
2023/10/13 01:34:21;;;;;;;;;;;;;;;20.65;62.47;100911.41;5036082;28;2129;-71
2023/10/13 01:36:50;;;;;;;;;;;;;;;20.65;62.56;100908.53;5037592;28;2102;-71
2023/10/13 01:39:18;;;;;;;;;;;;;;;20.64;62.39;100912.81;5039207;28;2137;-71
2023/10/13 01:41:45;;;;;;;;;;;;;;;20.66;62.35;100907.13;5039318;28;2015;-71
2023/10/13 01:44:11;;;;;;;;;;;;;;;20.66;62.33;100899.28;5036873;28;2144;-71
2023/10/13 01:46:38;;;;;;;;;;;;;;;20.65;62.57;100909.28;5035847;28;2157;-71
2023/10/13 01:49:05;;;;;;;;;;;;;;;20.63;62.64;100903.44;5017679;28;2393;-72
2023/10/13 01:51:31;;;;;;;;;;;;;;;20.63;62.50;100894.06;5035580;28;2161;-71
2023/10/13 01:53:57;;;;;;;;;;;;;;;20.63;62.41;100886.16;5022227;28;2224;-71
2023/10/13 01:56:24;;;;;;;;;;;;;;;20.63;62.45;100880.41;5034977;28;2293;-71
2023/10/13 01:58:51;;;;;;;;;;;;;;;20.64;62.47;100884.78;5035691;28;2069;-71
2023/10/13 02:01:26;;;;;;;;;;;;;;;20.64;62.47;100884.78;5020917;28;6181;-71
2023/10/13 02:04:02;;;;;;;;;;;;;;;20.63;62.39;100897.66;5020896;28;2023;-71
2023/10/13 02:06:32;;;;;;;;;;;;;;;20.64;62.57;100892.69;5019892;28;2174;-71
2023/10/13 02:09:10;;;;;;;;;;;;;;;20.65;62.27;100889.13;5038234;28;2137;-71
2023/10/13 02:11:39;;;;;;;;;;;;;;;20.63;62.34;100894.06;5016485;28;2052;-71
2023/10/13 02:14:06;;;;;;;;;;;;;;;20.63;62.33;100891.19;5018705;28;1598;-71
2023/10/13 02:16:32;;;;;;;;;;;;;;;20.62;62.45;100887.56;5037443;28;2186;-71
2023/10/13 02:19:04;;;;;;;;;;;;;;;20.62;62.48;100883.97;5038421;28;2173;-71
2023/10/13 02:21:31;;;;;;;;;;;;;;;20.63;62.31;100873.91;5036818;28;1977;-71
2023/10/13 02:24:03;;;;;;;;;;;;;;;20.63;62.31;100877.53;5022225;28;2217;-71
2023/10/13 02:26:30;;;;;;;;;;;;;;;20.64;62.51;100869.66;5018757;28;2205;-71
2023/10/13 02:28:57;;;;;;;;;;;;;;;20.62;62.53;100873.19;5022123;28;2118;-71
2023/10/13 02:31:25;;;;;;;;;;;;;;;20.58;62.55;100861.50;5035580;28;6321;-71
2023/10/13 02:33:53;;;;;;;;;;;;;;;20.58;62.47;100857.88;5036147;28;2182;-71
2023/10/13 02:36:22;;;;;;;;;;;;;;;20.58;62.50;100860.75;5035951;28;2141;-71
2023/10/13 02:38:50;;;;;;;;;;;;;;;20.59;62.64;100856.47;5035499;28;2141;-71
2023/10/13 02:41:27;;;;;;;;;;;;;;;20.58;62.61;100855.00;5037114;28;2085;-71
2023/10/13 02:43:54;;;;;;;;;;;;;;;20.56;62.50;100854.88;5021592;28;2062;-71
2023/10/13 02:46:22;;;;;;;;;;;;;;;20.58;62.78;100843.50;5021922;28;2127;-71
2023/10/13 02:48:53;;;;;;;;;;;;;;;20.56;62.54;100846.25;5036721;28;2192;-71
2023/10/13 02:51:25;;;;;;;;;;;;;;;20.58;62.71;100849.25;5019649;28;2024;-71
2023/10/13 02:53:52;;;;;;;;;;;;;;;20.58;62.64;100849.25;5036163;28;2252;-71
2023/10/13 02:56:22;;;;;;;;;;;;;;;20.60;62.55;100846.47;5036895;28;2186;-72
2023/10/13 02:59:04;;;;;;;;;;;;;;;20.60;62.69;100835.69;5037971;28;2219;-71
2023/10/13 03:01:33;;;;;;;;;;;;;;;20.62;62.79;100844.41;5016785;28;6158;-71
2023/10/13 03:04:03;;;;;;;;;;;;;;;20.64;62.80;100835.13;5037327;28;2212;-71
2023/10/13 03:06:32;;;;;;;;;;;;;;;20.63;62.69;100833.63;5038218;28;2105;-71
2023/10/13 03:09:14;;;;;;;;;;;;;;;20.63;62.78;100833.63;5037536;28;2140;-71
2023/10/13 03:11:48;;;;;;;;;;;;;;;20.62;62.80;100829.28;5019710;28;2126;-72
2023/10/13 03:14:24;;;;;;;;;;;;;;;20.63;62.85;100822.13;5024349;28;2039;-71
2023/10/13 03:16:52;;;;;;;;;;;;;;;20.63;62.87;100805.59;5021568;28;2172;-72
2023/10/13 03:19:21;;;;;;;;;;;;;;;20.63;62.72;100799.13;5039300;28;2149;-71
2023/10/13 03:21:54;;;;;;;;;;;;;;;20.62;62.73;100797.66;5040490;28;2138;-71
2023/10/13 03:24:33;;;;;;;;;;;;;;;20.62;62.94;100803.41;5042617;28;2118;-71
2023/10/13 03:27:09;;;;;;;;;;;;;;;20.63;62.79;100805.59;5039598;28;2085;-71
2023/10/13 03:29:36;;;;;;;;;;;;;;;20.64;62.80;100795.59;5044249;28;2133;-72
2023/10/13 03:32:06;;;;;;;;;;;;;;;20.62;63.01;100791.91;5022271;28;6359;-72
2023/10/13 03:34:34;;;;;;;;;;;;;;;20.62;62.94;100791.91;5041907;28;2126;-71
2023/10/13 03:37:10;;;;;;;;;;;;;;;20.63;62.96;100793.38;5037218;28;2121;-71
2023/10/13 03:39:37;;;;;;;;;;;;;;;20.65;62.78;100781.94;5038010;28;2016;-71
2023/10/13 03:42:05;;;;;;;;;;;;;;;20.63;62.91;100770.34;5039984;28;2114;-71
2023/10/13 03:44:32;;;;;;;;;;;;;;;20.64;62.96;100757.47;5037020;28;2066;-71
2023/10/13 03:47:17;;;;;;;;;;;;;;;20.62;62.86;100754.50;5040933;28;2141;-71
2023/10/13 03:49:44;;;;;;;;;;;;;;;20.59;62.63;100762.28;5040486;28;2125;-71
2023/10/13 03:52:13;;;;;;;;;;;;;;;20.61;62.76;100773.88;5037995;28;2138;-72
2023/10/13 03:54:40;;;;;;;;;;;;;;;20.64;62.63;100768.97;5035740;28;1699;-71
2023/10/13 03:57:11;;;;;;;;;;;;;;;20.63;62.70;100770.34;5039097;28;2224;-71
2023/10/13 03:59:38;;;;;;;;;;;;;;;20.59;62.91;100765.16;5040051;28;2145;-71
2023/10/13 04:02:11;;;;;;;;;;;;;;;20.62;62.62;100766.00;5041908;28;6267;-71
2023/10/13 04:07:38;;;;;;;;;;;;;;;20.60;62.69;100760.16;5042030;28;2665;-71
2023/10/13 04:11:49;;;;;;;;;;;;;;;20.59;62.94;100762.28;5020612;28;2212;-71
2023/10/13 04:29:45;;;;;;;;;;;;;;;20.59;62.88;100735.63;5038551;28;2148;-71
2023/10/13 04:32:15;;;;;;;;;;;;;;;20.60;62.86;100731.38;5041794;28;6240;-71
2023/10/13 04:34:51;;;;;;;;;;;;;;;20.59;62.68;100727.00;5039993;28;2191;-71
2023/10/13 04:37:30;;;;;;;;;;;;;;;20.58;62.70;100728.41;5041897;28;2189;-71
2023/10/13 04:39:59;;;;;;;;;;;;;;;20.61;62.41;100722.09;5041773;28;2177;-72
2023/10/13 04:48:39;;;;;;;;;;;;;;;20.60;62.75;100699.75;5039889;28;2246;-71
2023/10/13 04:50:59;;;;;;;;;;;;;;;20.62;62.48;100705.59;5035909;28;2009;-71
2023/10/13 04:53:29;;;;;;;;;;;;;;;20.60;62.59;100708.38;5039008;28;2301;-71
2023/10/13 05:45:16;;;;;;;;;;;;;;;20.92;62.58;100706.84;5037297;28;2482;-78
2023/10/13 06:28:43;;;;;;;;;;;;;;;20.81;63.63;100687.69;5040162;28;2199;-79
2023/10/13 06:31:22;;;;;;;;;;;;;;;20.84;63.43;100680.59;5039794;28;6706;-78
2023/10/13 06:33:49;;;;;;;;;;;;;;;20.82;63.36;100674.78;5035593;28;2304;-79
2023/10/13 06:36:17;;;;;;;;;;;;;;;20.81;63.52;100673.28;5035958;28;2283;-81
2023/10/13 06:38:44;;;;;;;;;;;;;;;20.72;63.96;100668.59;5020713;28;3217;-89
2023/10/13 06:41:19;;;;;;;;;;;;;;;20.84;63.57;100674.84;5033684;28;2279;-79
2023/10/13 06:43:58;;;;;;;;;;;;;;;20.86;63.62;100669.19;5040030;28;2271;-79
2023/10/13 06:46:28;;;;;;;;;;;;;;;20.89;63.46;100676.53;5037213;28;4029;-79
2023/10/13 06:48:55;;;;;;;;;;;;;;;20.89;63.25;100665.00;5021622;28;3796;-79
2023/10/13 06:51:26;;;;;;;;;;;;;;;20.89;63.21;100662.13;5036012;28;2314;-79
2023/10/13 06:53:56;;;;;;;;;;;;;;;20.89;63.02;100670.75;5039276;28;2249;-79
2023/10/13 06:56:29;;;;;;;;;;;;;;;20.92;62.81;100672.31;5038493;28;1693;-79
2023/10/13 06:59:04;;;;;;;;;;;;;;;20.92;63.11;100675.19;5040565;28;1939;-79
2023/10/13 07:01:38;;;;;;;;;;;;;;;20.90;63.16;100672.22;5036524;28;6660;-79
2023/10/13 07:04:14;;;;;;;;;;;;;;;20.89;62.95;100676.53;5040195;28;2398;-79
2023/10/13 07:06:48;;;;;;;;;;;;;;;20.93;62.92;100667.28;5033251;28;3920;-79
2023/10/13 07:12:03;;;;;;;;;;;;;;;21.43;62.20;100649.84;5023106;28;2495;-76
2023/10/13 07:14:33;;;;;;;;;;;;;;;21.55;62.02;100653.19;5039492;28;2369;-70
2023/10/13 07:17:00;;;;;;;;;;;;;;;21.63;61.47;100650.63;5038845;28;2427;-72
2023/10/13 07:19:30;;;;;;;;;;;;;;;21.64;61.46;100649.22;5039029;28;2360;-72
2023/10/13 07:22:18;;;;;;;;;;;;;;;21.68;61.48;100652.25;5037343;28;4192;-72
2023/10/13 07:24:49;;;;;;;;;;;;;;;21.65;61.40;100653.59;5037042;28;2412;-72
2023/10/13 07:27:25;;;;;;;;;;;;;;;21.59;61.50;100653.34;5037944;28;2423;-73
2023/10/13 07:32:37;;;;;;;;;;;;;;;21.46;61.67;100654.28;5038389;28;6206;-70
2023/10/13 07:35:07;;;;;;;;;;;;;;;21.41;62.19;100658.41;5039279;28;2291;-70
2023/10/13 07:37:33;;;;;;;;;;;;;;;21.40;62.29;100651.16;5033090;28;4287;-71
2023/10/13 07:40:00;;;;;;;;;;;;;;;21.43;61.90;100655.63;5038205;28;2793;-71
2023/10/13 07:42:31;;;;;;;;;;;;;;;21.43;61.92;100644.09;5037731;28;2582;-71
2023/10/13 07:44:58;;;;;;;;;;;;;;;21.40;61.91;100645.41;5037452;28;2411;-71
2023/10/13 07:47:26;;;;;;;;;;;;;;;21.43;61.98;100649.84;5039420;28;2356;-71
2023/10/13 07:49:56;;;;;;;;;;;;;;;21.45;62.20;100641.28;5039789;28;2297;-71
2023/10/13 07:55:11;;;;;;;;;;;;;;;21.49;61.90;100629.94;5041343;28;2435;-70
2023/10/13 07:57:53;;;;;;;;;;;;;;;21.79;61.14;100623.81;5038499;28;2094;-79
2023/10/13 08:00:38;;;;;;;;;;;;;;;21.91;61.10;100627.16;5019157;28;6039;-80
2023/10/13 08:03:09;;;;;;;;;;;;;;;21.94;60.91;100631.56;5042500;28;2390;-80
2023/10/13 08:08:22;;;;;;;;;;;;;;;21.91;60.58;100612.72;5041060;28;2256;-80
2023/10/13 08:10:48;;;;;;;;;;;;;;;21.87;60.79;100621.97;5024817;28;2853;-79
2023/10/13 08:13:15;;;;;;;;;;;;;;;21.93;60.34;100613.53;5044690;28;2141;-78
2023/10/13 08:15:47;;;;;;;;;;;;;;;21.93;60.25;100613.53;5040930;28;2368;-79
2023/10/13 08:18:30;;;;;;;;;;;;;;;21.80;60.23;100616.66;5039840;28;2091;-78
2023/10/13 08:21:03;;;;;;;;;;;;;;;21.45;61.14;100609.59;5027621;28;2117;-78
2023/10/13 08:34:38;;;;;;;;;;;;;;;21.33;62.19;100584.66;5042564;28;2337;-74
2023/10/13 08:37:28;;;;;;;;;;;;;;;21.48;61.60;100582.34;5042130;28;2346;-73
2023/10/13 08:39:58;;;;;;;;;;;;;;;21.51;61.57;100575.28;5040693;28;2337;-78
2023/10/13 08:45:20;;;;;;;;;;;;;;;21.42;61.65;100567.72;5008278;28;2318;-76
2023/10/13 08:48:35;;;;;;;;;;;;;;;21.37;61.89;100566.78;5025974;28;2201;-76
2023/10/13 08:56:15;;;;;;;;;;;;;;;21.26;62.15;100574.31;5040061;28;4248;-77
2023/10/13 09:01:37;;;;;;;;;;;;;;;21.29;61.90;100566.50;5035539;28;6510;-78
2023/10/13 09:04:22;;;;;;;;;;;;;;;21.30;62.16;100565.84;5040151;28;2421;-77
2023/10/13 09:12:25;;;;;;;;;;;;;;;21.34;62.05;100554.44;5040835;28;2318;-76
2023/10/13 09:14:58;;;;;;;;;;;;;;;21.29;61.78;100555.72;5038618;28;2480;-77
2023/10/13 09:20:23;;;;;;;;;;;;;;;21.45;61.95;100561.38;5040098;28;2710;-76
2023/10/13 09:25:35;;;;;;;;;;;;;;;21.21;61.93;100543.13;5038935;28;2261;-77
2023/10/13 09:28:02;;;;;;;;;;;;;;;21.47;62.17;100546.31;5037312;28;4462;-77
2023/10/13 09:30:31;;;;;;;;;;;;;;;21.69;61.73;100526.97;5041246;28;6187;-78
2023/10/13 09:33:01;;;;;;;;;;;;;;;21.88;60.81;100524.72;5022752;28;2325;-78
2023/10/13 09:35:28;;;;;;;;;;;;;;;21.89;60.96;100514.66;5042927;28;2423;-77
2023/10/13 09:37:57;;;;;;;;;;;;;;;21.90;60.84;100516.88;5041405;28;2058;-75
2023/10/13 09:40:34;;;;;;;;;;;;;;;22.05;60.53;100512.31;5024883;28;2201;-77
2023/10/13 09:43:05;;;;;;;;;;;;;;;22.00;60.31;100502.06;5037477;28;2306;-78
2023/10/13 09:45:43;;;;;;;;;;;;;;;21.84;60.77;100501.50;5038332;28;4821;-78
2023/10/13 09:48:16;;;;;;;;;;;;;;;21.79;60.68;100491.25;5041015;28;2922;-78
2023/10/13 09:50:46;;;;;;;;;;;;;;;21.78;60.81;100484.72;5025647;28;2965;-76
2023/10/13 09:53:14;;;;;;;;;;;;;;;21.78;60.70;100484.00;5042190;28;1570;-75
2023/10/13 09:55:44;;;;;;;;;;;;;;;21.82;60.75;100466.84;5041258;28;2314;-79
2023/10/13 09:58:13;;;;;;;;;;;;;;;21.80;60.66;100466.78;5024540;28;2233;-78
2023/10/13 10:06:06;;;;;;;;;;;;;;;21.50;61.37;100475.84;5043068;28;1563;-76
2023/10/13 10:08:33;;;;;;;;;;;;;;;21.41;61.91;100468.31;5041306;28;2303;-74
2023/10/13 10:11:20;;;;;;;;;;;;;;;21.50;61.32;100475.84;5041106;28;1836;-77
2023/10/13 10:13:58;;;;;;;;;;;;;;;21.54;61.67;100470.22;5024264;28;2437;-77
2023/10/13 10:16:37;;;;;;;;;;;;;;;21.46;61.66;100467.81;5024316;28;1801;-76
2023/10/13 10:19:04;;;;;;;;;;;;;;;21.34;61.75;100470.94;5041689;28;1586;-78
2023/10/13 10:21:35;;;;;;;;;;;;;;;21.45;62.22;100468.47;5039714;28;2220;-76
2023/10/13 10:24:07;;;;;;;;;;;;;;;21.43;61.94;100477.75;5039339;28;2268;-76
2023/10/13 10:26:34;;;;;;;;;;;;;;;21.51;61.73;100468.69;5033794;28;4616;-79
2023/10/13 10:29:10;;;;;;;;;;;;;;;21.44;61.40;100466.97;5039344;28;2937;-79
2023/10/13 10:31:41;;;;;;;;;;;;;;;21.43;61.69;100471.25;5038683;28;7233;-79
2023/10/13 10:34:12;;;;;;;;;;;;;;;21.19;62.80;100463.19;5039386;28;2433;-76
2023/10/13 10:36:46;;;;;;;;;;;;;;;21.36;64.30;100444.34;5023752;28;2177;-75
2023/10/13 10:39:12;;;;;;;;;;;;;;;21.32;63.54;100433.41;5022010;28;4871;-75
2023/10/13 10:41:51;;;;;;;;;;;;;;;21.32;63.11;100430.53;5020729;28;4072;-76
2023/10/13 10:44:37;;;;;;;;;;;;;;;21.33;62.76;100437.06;5042103;28;2229;-75
2023/10/13 10:47:31;;;;;;;;;;;;;;;21.39;62.76;100416.34;5039790;28;2220;-76
2023/10/13 10:50:00;;;;;;;;;;;;;;;21.38;62.50;100427.16;5039240;28;2247;-74
2023/10/13 10:52:26;;;;;;;;;;;;;;;21.33;62.67;100423.38;5041767;28;1584;-76
2023/10/13 10:54:59;;;;;;;;;;;;;;;21.46;62.48;100418.06;5008993;28;1790;-78
2023/10/13 10:57:28;;;;;;;;;;;;;;;21.45;62.73;100413.72;5040768;28;2564;-73
2023/10/13 11:00:11;;;;;;;;;;;;;;;21.45;61.96;100405.09;5039636;28;2405;-73
2023/10/13 11:02:38;;;;;;;;;;;;;;;21.41;62.46;100405.66;5039146;28;5975;-76
2023/10/13 11:05:06;;;;;;;;;;;;;;;21.34;62.68;100410.44;5041630;28;2437;-74
2023/10/13 11:07:34;;;;;;;;;;;;;;;21.41;62.42;100410.69;5038610;28;2276;-75
2023/10/13 11:10:26;;;;;;;;;;;;;;;21.58;61.85;100404.09;5039371;28;2272;-79
2023/10/13 11:13:13;;;;;;;;;;;;;;;21.52;62.23;100393.09;5041354;28;2239;-74
2023/10/13 11:15:44;;;;;;;;;;;;;;;21.32;62.43;100393.09;5039426;28;2206;-74
2023/10/13 11:18:20;;;;;;;;;;;;;;;21.29;62.70;100388.69;5038853;28;2513;-75
2023/10/13 11:20:53;;;;;;;;;;;;;;;21.54;62.85;100386.66;5040046;28;2248;-77
2023/10/13 11:23:25;;;;;;;;;;;;;;;21.60;62.90;100383.25;5039152;28;2212;-74
2023/10/13 11:25:59;;;;;;;;;;;;;;;21.69;64.62;100382.88;5038062;28;2243;-73
2023/10/13 11:28:28;;;;;;;;;;;;;;;21.74;65.37;100375.84;5021117;28;2387;-77
2023/10/13 11:30:58;;;;;;;;;;;;;;;21.74;65.04;100375.09;5039143;28;6073;-80
2023/10/13 11:33:27;;;;;;;;;;;;;;;21.64;64.18;100361.06;5039530;28;2302;-74
2023/10/13 11:38:27;;;;;;;;;;;;;;;21.60;63.65;100358.06;5024929;28;2301;-78
2023/10/13 11:48:43;;;;;;;;;;;;;;;21.67;62.71;100353.22;5040519;28;2184;-76
2023/10/13 11:51:17;;;;;;;;;;;;;;;21.49;63.34;100338.97;5042290;28;2224;-77
2023/10/13 11:53:44;;;;;;;;;;;;;;;21.51;63.47;100328.25;5044258;28;2333;-76
2023/10/13 11:56:11;;;;;;;;;;;;;;;21.72;62.97;100318.13;5040276;28;2248;-73
2023/10/13 11:58:37;;;;;;;;;;;;;;;21.88;62.84;100317.19;5041791;28;2292;-74
2023/10/13 12:11:45;;;;;;;;;;;;;;;21.60;62.98;100294.69;5038361;28;4783;-80
2023/10/13 12:14:16;;;;;;;;;;;;;;;21.58;63.22;100291.75;5041796;28;2928;-79
2023/10/13 12:16:48;;;;;;;;;;;;;;;21.58;63.21;100291.75;5041582;28;4641;-79
2023/10/13 12:19:18;;;;;;;;;;;;;;;21.64;63.00;100294.81;5041458;28;2286;-77
2023/10/13 12:21:46;;;;;;;;;;;;;;;21.65;62.96;100289.78;5024301;28;2903;-75
2023/10/13 12:24:22;;;;;;;;;;;;;;;21.77;62.91;100290.19;5044273;28;2368;-76
2023/10/13 12:26:55;;;;;;;;;;;;;;;21.96;62.36;100277.78;5041071;28;2272;-76
2023/10/13 12:29:28;;;;;;;;;;;;;;;22.02;61.91;100279.41;5040903;28;2303;-74
2023/10/13 12:32:08;;;;;;;;;;;;;;;21.80;62.17;100267.91;5039118;28;6260;-75
2023/10/13 12:54:35;;;;;;;;;;;;;;;21.95;62.17;100246.78;4959049;28;2670;-76
2023/10/13 12:56:56;;;;;;;;;;;;;;;22.00;61.92;100225.31;4956436;28;2434;-76
2023/10/13 12:59:26;;;;;;;;;;;;;;;22.23;61.77;100228.88;4992766;28;2287;-75
2023/10/13 13:01:53;;;;;;;;;;;;;;;22.00;61.52;100215.91;5041109;28;7043;-82
2023/10/13 13:04:31;;;;;;;;;;;;;;;21.88;62.44;100208.38;5023907;28;2321;-79
2023/10/13 13:06:58;;;;;;;;;;;;;;;21.87;62.43;100218.44;5038650;28;2363;-74
2023/10/13 13:09:27;;;;;;;;;;;;;;;21.73;62.58;100207.22;5039402;28;4804;-76
2023/10/13 13:11:57;;;;;;;;;;;;;;;21.93;62.13;100215.00;5041170;28;2982;-75
2023/10/13 13:14:28;;;;;;;;;;;;;;;21.99;61.85;100211.56;5041098;28;2739;-74
2023/10/13 13:17:04;;;;;;;;;;;;;;;21.95;61.80;100203.53;5039958;28;2332;-91
2023/10/13 13:19:34;;;;;;;;;;;;;;;21.91;62.04;100206.28;5039517;28;2939;-75
2023/10/13 13:22:01;;;;;;;;;;;;;;;21.89;61.87;100206.22;5039978;28;2953;-76
2023/10/13 13:24:29;;;;;;;;;;;;;;;21.74;62.38;100205.81;5040219;28;2479;-80
2023/10/13 13:26:56;;;;;;;;;;;;;;;21.89;62.31;100206.97;5041886;28;2401;-80
2023/10/13 13:29:22;;;;;;;;;;;;;;;21.97;61.78;100192.06;5039645;28;2412;-81
2023/10/13 13:31:49;;;;;;;;;;;;;;;22.02;61.81;100190.03;5041164;28;6292;-79
2023/10/13 13:34:16;;;;;;;;;;;;;;;22.06;61.68;100182.25;5040926;28;2379;-79
2023/10/13 13:36:44;;;;;;;;;;;;;;;22.10;61.24;100182.34;5040730;28;2534;-81
2023/10/13 13:39:11;;;;;;;;;;;;;;;22.12;61.61;100181.66;5021543;28;4713;-78
2023/10/13 13:41:38;;;;;;;;;;;;;;;22.10;61.31;100182.34;5036017;28;3060;-77
2023/10/13 13:44:13;;;;;;;;;;;;;;;22.13;61.39;100180.28;5036305;28;2334;-79
2023/10/13 13:46:43;;;;;;;;;;;;;;;22.22;61.12;100170.47;5035531;28;2908;-77
2023/10/13 13:49:20;;;;;;;;;;;;;;;22.34;60.85;100178.72;5039558;28;2233;-79
2023/10/13 13:51:53;;;;;;;;;;;;;;;22.18;61.11;100156.63;5020448;28;2581;-78
2023/10/13 13:54:19;;;;;;;;;;;;;;;21.84;61.92;100170.06;5036078;28;2280;-78
2023/10/13 13:56:46;;;;;;;;;;;;;;;21.69;62.46;100152.34;5035090;28;3098;-79
2023/10/13 13:59:15;;;;;;;;;;;;;;;21.97;62.64;100145.94;5037995;28;2938;-83
2023/10/13 14:01:44;;;;;;;;;;;;;;;22.14;61.53;100147.84;5035620;28;6097;-86
2023/10/13 14:04:11;;;;;;;;;;;;;;;22.25;61.22;100151.06;5018186;28;2691;-80
2023/10/13 14:06:37;;;;;;;;;;;;;;;22.16;61.38;100142.16;5035178;28;2288;-81
2023/10/13 14:14:57;;;;;;;;;;;;;;;22.07;62.12;100137.56;4976241;28;2219;-79
2023/10/13 14:17:28;;;;;;;;;;;;;;;22.09;62.20;100142.66;5025851;28;2524;-78
2023/10/13 14:19:58;;;;;;;;;;;;;;;22.05;62.22;100134.63;5037075;28;2307;-83
2023/10/13 14:22:24;;;;;;;;;;;;;;;21.95;62.67;100126.44;5020005;28;2314;-78
2023/10/13 14:24:54;;;;;;;;;;;;;;;22.09;62.29;100122.47;5039081;28;2183;-78
2023/10/13 14:27:25;;;;;;;;;;;;;;;22.10;62.20;100118.19;5038542;28;2283;-77
2023/10/13 14:29:56;;;;;;;;;;;;;;;22.07;62.65;100120.28;5029430;28;2371;-77
2023/10/13 14:32:24;;;;;;;;;;;;;;;22.03;62.99;100111.50;5034185;28;7034;-77
2023/10/13 14:34:55;;;;;;;;;;;;;;;21.98;62.97;100112.09;5033244;28;2786;-78
2023/10/13 14:37:31;;;;;;;;;;;;;;;21.93;63.23;100102.59;5036587;28;2249;-80
2023/10/13 14:39:58;;;;;;;;;;;;;;;21.92;63.22;100103.97;5018023;28;2280;-79
2023/10/13 14:42:25;;;;;;;;;;;;;;;21.96;63.06;100092.56;5018398;28;2236;-80
2023/10/13 14:44:55;;;;;;;;;;;;;;;22.01;62.86;100094.16;5037116;28;2553;-79
2023/10/13 14:47:24;;;;;;;;;;;;;;;21.96;63.26;100084.66;5021444;28;2231;-81
2023/10/13 14:49:54;;;;;;;;;;;;;;;22.17;62.47;100093.84;5021763;28;2413;-78
2023/10/13 14:52:24;;;;;;;;;;;;;;;22.21;62.53;100091.13;5020807;28;2293;-79
2023/10/13 14:54:55;;;;;;;;;;;;;;;22.16;62.63;100096.00;5035088;28;2359;-79
2023/10/13 14:57:24;;;;;;;;;;;;;;;22.16;62.33;100090.25;5014271;28;2248;-81
2023/10/13 14:59:54;;;;;;;;;;;;;;;22.11;62.31;100074.25;5035969;28;2295;-80
2023/10/13 15:02:20;;;;;;;;;;;;;;;22.09;62.56;100079.97;5034253;28;6371;-79
2023/10/13 15:04:50;;;;;;;;;;;;;;;22.06;62.97;100078.44;5030907;28;4819;-78
2023/10/13 15:07:17;;;;;;;;;;;;;;;22.18;62.29;100078.03;5031365;28;3333;-81
2023/10/13 15:09:44;;;;;;;;;;;;;;;22.14;62.31;100078.66;5034841;28;2378;-79
2023/10/13 15:12:10;;;;;;;;;;;;;;;22.08;62.69;100072.00;5036414;28;3179;-77
2023/10/13 15:14:39;;;;;;;;;;;;;;;22.06;62.95;100072.69;5040482;28;2234;-77
2023/10/13 15:17:06;;;;;;;;;;;;;;;22.07;62.55;100068.38;5037794;28;2315;-80
2023/10/13 15:19:38;;;;;;;;;;;;;;;22.09;62.89;100074.19;5041339;28;2296;-82
2023/10/13 15:22:12;;;;;;;;;;;;;;;22.12;62.56;100069.94;5040117;28;2659;-82
2023/10/13 15:24:45;;;;;;;;;;;;;;;22.07;62.82;100064.75;5040592;28;3124;-81
2023/10/13 15:27:11;;;;;;;;;;;;;;;22.07;63.08;100062.59;5036710;28;2412;-83
2023/10/13 15:29:38;;;;;;;;;;;;;;;22.08;62.61;100057.56;5041423;28;2270;-77
2023/10/13 15:32:05;;;;;;;;;;;;;;;22.00;62.94;100068.91;5034552;28;6138;-80
2023/10/13 15:34:32;;;;;;;;;;;;;;;21.96;62.81;100055.81;5022906;28;2353;-82
2023/10/13 15:36:59;;;;;;;;;;;;;;;21.98;63.08;100055.16;5023097;28;2256;-84
2023/10/13 15:39:28;;;;;;;;;;;;;;;21.94;62.95;100043.50;5040690;28;2538;-86
2023/10/13 15:41:58;;;;;;;;;;;;;;;21.96;63.22;100052.22;5040241;28;2373;-81
2023/10/13 15:44:25;;;;;;;;;;;;;;;21.94;63.47;100037.75;5036848;28;2317;-75
2023/10/13 15:46:55;;;;;;;;;;;;;;;21.95;63.14;100039.22;5038594;28;2337;-76
2023/10/13 15:49:27;;;;;;;;;;;;;;;21.91;63.22;100044.88;5039621;28;2551;-79
2023/10/13 15:51:57;;;;;;;;;;;;;;;21.98;62.78;100032.09;5025487;28;2200;-76
2023/10/13 15:54:24;;;;;;;;;;;;;;;22.03;62.86;100033.66;5038495;28;2265;-78
2023/10/13 15:56:54;;;;;;;;;;;;;;;22.05;63.07;100019.31;5037355;28;2401;-81
2023/10/13 15:59:22;;;;;;;;;;;;;;;22.11;62.54;100016.59;5039325;28;2579;-79
2023/10/13 16:01:54;;;;;;;;;;;;;;;22.20;62.33;100008.88;5039417;28;6181;-79
2023/10/13 16:04:21;;;;;;;;;;;;;;;22.09;62.42;100013.66;5034678;28;2332;-76
2023/10/13 16:06:50;;;;;;;;;;;;;;;21.99;62.83;100009.75;5038928;28;2377;-75
2023/10/13 16:09:22;;;;;;;;;;;;;;;22.11;62.55;100007.94;5043193;28;2360;-76
2023/10/13 16:11:50;;;;;;;;;;;;;;;22.07;62.79;100010.00;5040165;28;2346;-82
2023/10/13 16:14:17;;;;;;;;;;;;;;;21.93;63.06;100008.19;5037937;28;2503;-81
2023/10/13 16:16:47;;;;;;;;;;;;;;;21.95;62.67;100010.41;5040639;28;2476;-79
2023/10/13 16:19:17;;;;;;;;;;;;;;;21.85;62.94;100002.22;5024544;28;2466;-78
2023/10/13 16:21:45;;;;;;;;;;;;;;;21.85;62.90;100001.47;5024918;28;2443;-79
2023/10/13 16:24:11;;;;;;;;;;;;;;;21.84;62.93;99992.09;5042239;28;2430;-79
2023/10/13 16:26:40;;;;;;;;;;;;;;;21.83;62.71;99998.53;5042148;28;2501;-79
2023/10/13 16:29:07;;;;;;;;;;;;;;;21.80;62.83;99999.91;5042167;28;2366;-79
2023/10/13 16:31:33;;;;;;;;;;;;;;;21.81;62.60;100018.69;5041217;28;6183;-79
2023/10/13 16:34:01;;;;;;;;;;;;;;;21.79;62.58;100009.97;5042812;28;2398;-79
2023/10/13 16:36:30;;;;;;;;;;;;;;;21.75;62.83;100011.31;5042690;28;2790;-79
2023/10/13 16:38:57;;;;;;;;;;;;;;;21.74;62.57;100001.22;5037332;28;2487;-79